Listowel, Canada
Current Conditions -  °F | °C
As of 12:00 AM on Monday 20 Oct 2014 (Local Time) from CYKF Reporting Station
Overcast Overcast  
Wind Chill: 38°   Ceiling: 9500
Heat Index: 41°   Visibility: 9mi
Dew Point: 36°   Wind: 5mph
Humidity: 81%   Direction: 190°S
Pressure: 29.98"   Gusts: NA
Location:  43.73°N, 80.97°W
Report Text: CYKF 200400Z AUTO 19004KT 9SM BKN095 OVC110 05/02 A2998 RMK SLP160
Loading
Personal Weather Stations






























Interactive Weather Map
Tropical Storm Tracking
New forecast layout! Learn more

10-Day Weather Forecast

Advertisements
Track Severe Weather on mobile